createdAt,value
2022-12-04T00:00:50.431Z,34.38
2022-12-04T00:02:58.473Z,32.55
2022-12-04T00:05:00.664Z,33.90
2022-12-04T00:07:04.774Z,31.73
2022-12-04T00:09:06.970Z,32.35
2022-12-04T00:11:10.671Z,32.90
2022-12-04T00:13:15.643Z,32.08
2022-12-04T00:15:27.089Z,31.05
2022-12-04T00:17:29.073Z,29.50
2022-12-04T00:19:31.061Z,27.75
2022-12-04T00:21:39.042Z,28.40
2022-12-04T00:23:53.709Z,26.98
2022-12-04T00:26:06.769Z,27.70
2022-12-04T00:28:10.663Z,28.13
2022-12-04T00:30:14.043Z,30.00
2022-12-04T00:32:22.637Z,31.58
2022-12-04T00:34:26.591Z,30.35
2022-12-04T00:36:36.863Z,30.85
2022-12-04T00:38:41.195Z,30.08
2022-12-04T00:40:50.061Z,30.73
2022-12-04T00:42:56.930Z,30.42
2022-12-04T00:44:59.848Z,30.17
2022-12-04T00:47:03.798Z,30.77
2022-12-04T00:49:12.379Z,32.47
2022-12-04T00:51:22.021Z,29.58
2022-12-04T00:53:23.897Z,28.58
2022-12-04T00:55:27.123Z,31.33
2022-12-04T00:57:38.351Z,28.38
2022-12-04T00:59:40.278Z,29.02
2022-12-04T01:01:42.234Z,30.73
2022-12-04T01:03:45.280Z,29.63
2022-12-04T01:05:48.178Z,30.00
2022-12-04T01:07:59.273Z,28.77
2022-12-04T01:10:12.460Z,30.42
2022-12-04T01:12:20.351Z,28.23
2022-12-04T01:14:24.705Z,28.77
2022-12-04T01:16:40.156Z,27.42
2022-12-04T01:18:56.457Z,27.63
2022-12-04T01:21:18.833Z,29.40
2022-12-04T01:23:21.438Z,29.58
2022-12-04T01:25:23.381Z,29.23
2022-12-04T01:27:25.495Z,30.17
2022-12-04T01:29:27.434Z,27.65
2022-12-04T01:31:33.535Z,30.30
2022-12-04T01:33:37.850Z,28.95
2022-12-04T01:35:39.749Z,28.33
2022-12-04T01:37:42.607Z,29.45
2022-12-04T01:39:44.520Z,29.15
2022-12-04T01:41:46.564Z,30.15
2022-12-04T01:44:07.934Z,29.90
2022-12-04T01:46:10.842Z,27.80
2022-12-04T01:48:37.814Z,28.65
2022-12-04T01:50:43.455Z,26.42
2022-12-04T01:52:47.480Z,27.15
2022-12-04T01:54:59.160Z,25.98
2022-12-04T01:57:18.402Z,25.70
2022-12-04T01:59:26.520Z,27.75
2022-12-04T02:01:36.437Z,27.13
2022-12-04T02:03:39.453Z,27.02
2022-12-04T02:05:41.286Z,26.48
2022-12-04T02:07:45.975Z,26.40
2022-12-04T02:09:54.161Z,25.35
2022-12-04T02:12:12.011Z,25.98
2022-12-04T02:14:41.378Z,23.40
2022-12-04T02:16:57.701Z,24.30
2022-12-04T02:19:23.526Z,24.48
2022-12-04T02:21:49.351Z,25.58
2022-12-04T02:24:30.224Z,24.30
2022-12-04T02:26:47.471Z,24.48
2022-12-04T02:28:56.192Z,24.27
2022-12-04T02:31:08.343Z,26.52
2022-12-04T02:33:36.832Z,26.10
2022-12-04T02:36:24.856Z,25.38
2022-12-04T02:38:42.910Z,23.30
2022-12-04T02:40:57.235Z,23.00
2022-12-04T02:43:08.314Z,22.90
2022-12-04T02:45:16.345Z,21.92
2022-12-04T02:47:26.551Z,21.67
2022-12-04T02:49:59.061Z,21.70
2022-12-04T02:52:13.470Z,22.45
2022-12-04T02:54:34.455Z,22.67
2022-12-04T02:56:45.525Z,21.70
2022-12-04T02:58:52.973Z,24.13
2022-12-04T03:01:19.540Z,23.67
2022-12-04T03:03:25.622Z,21.95
2022-12-04T03:05:38.996Z,23.15
2022-12-04T03:08:01.178Z,21.90
2022-12-04T03:10:09.671Z,22.48
2022-12-04T03:12:22.328Z,21.70
2022-12-04T03:14:32.307Z,20.63
2022-12-04T03:16:41.266Z,19.92
2022-12-04T03:18:49.894Z,21.58
2022-12-04T03:20:59.320Z,19.77
2022-12-04T03:23:18.840Z,20.90
2022-12-04T03:25:28.505Z,19.55
2022-12-04T03:27:54.612Z,21.13
2022-12-04T03:30:05.007Z,18.98
2022-12-04T03:32:08.842Z,20.65
2022-12-04T03:34:15.881Z,20.75
2022-12-04T03:36:26.542Z,21.48
2022-12-04T03:38:40.087Z,21.88
2022-12-04T03:41:02.669Z,21.33
2022-12-04T03:43:11.885Z,22.42
2022-12-04T03:45:29.446Z,23.50
2022-12-04T03:47:41.507Z,21.95
2022-12-04T03:50:09.905Z,22.05
2022-12-04T03:52:25.699Z,20.20
2022-12-04T03:54:35.421Z,22.85
2022-12-04T03:56:43.846Z,22.45
2022-12-04T03:58:57.424Z,22.00
2022-12-04T04:01:02.171Z,22.25
2022-12-04T04:03:20.970Z,22.05
2022-12-04T04:05:25.936Z,22.92
2022-12-04T04:07:39.537Z,23.38
2022-12-04T04:09:54.457Z,23.40
2022-12-04T04:12:09.068Z,23.50
2022-12-04T04:14:43.208Z,25.35
2022-12-04T04:17:17.031Z,23.33
2022-12-04T04:19:39.180Z,24.55
2022-12-04T04:22:03.901Z,23.55
2022-12-04T04:24:18.518Z,23.17
2022-12-04T04:26:37.974Z,23.35
2022-12-04T04:28:42.786Z,22.05
2022-12-04T04:30:44.660Z,23.17
2022-12-04T04:33:11.745Z,24.50
2022-12-04T04:35:34.518Z,23.70
2022-12-04T04:37:52.495Z,22.95
2022-12-04T04:40:05.343Z,21.08
2022-12-04T04:42:11.888Z,22.35
2022-12-04T04:44:29.611Z,20.17
2022-12-04T04:46:42.482Z,19.40
2022-12-04T04:48:55.809Z,18.65
2022-12-04T04:51:00.247Z,20.75
2022-12-04T04:53:20.492Z,18.52
2022-12-04T04:55:23.561Z,19.05
2022-12-04T04:57:29.628Z,19.77
2022-12-04T04:59:37.325Z,19.08
2022-12-04T05:01:41.537Z,19.65
2022-12-04T05:03:52.497Z,20.15
2022-12-04T05:05:55.616Z,21.40
2022-12-04T05:07:57.531Z,22.40
2022-12-04T05:09:59.617Z,23.40
2022-12-04T05:12:04.707Z,22.10
2022-12-04T05:14:06.563Z,21.40
2022-12-04T05:16:15.718Z,21.77
2022-12-04T05:18:17.692Z,21.80
2022-12-04T05:20:20.686Z,22.25
2022-12-04T05:22:36.958Z,21.48
2022-12-04T05:24:38.848Z,22.00
2022-12-04T05:26:40.899Z,22.60
2022-12-04T05:28:43.844Z,21.73
2022-12-04T05:30:46.263Z,21.85
2022-12-04T05:32:49.136Z,23.58
2022-12-04T05:34:52.603Z,21.77
2022-12-04T05:36:54.485Z,21.73
2022-12-04T05:38:56.335Z,20.02
2022-12-04T05:40:59.662Z,21.42
2022-12-04T05:43:08.694Z,20.52
2022-12-04T05:45:11.109Z,19.05
2022-12-04T05:47:18.899Z,21.25
2022-12-04T05:49:20.759Z,18.83
2022-12-04T05:51:24.653Z,18.88
2022-12-04T05:53:39.339Z,19.30
2022-12-04T05:55:41.217Z,19.13
2022-12-04T05:57:44.058Z,18.25
2022-12-04T05:59:47.007Z,20.92
2022-12-04T06:01:49.980Z,19.48
2022-12-04T06:03:54.908Z,20.15
2022-12-04T06:05:57.870Z,19.73
2022-12-04T06:08:00.044Z,21.00
2022-12-04T06:10:02.417Z,19.80
2022-12-04T06:12:05.173Z,20.55
2022-12-04T06:14:15.958Z,19.75
2022-12-04T06:16:27.705Z,19.25
2022-12-04T06:20:35.636Z,20.45
2022-12-04T06:22:37.630Z,19.67
2022-12-04T06:24:39.615Z,19.58
2022-12-04T06:27:04.054Z,18.38
2022-12-04T06:29:15.719Z,19.42
2022-12-04T06:31:19.276Z,19.55
2022-12-04T06:33:21.243Z,19.02
2022-12-04T06:35:24.108Z,19.48
2022-12-04T06:37:26.276Z,21.33
2022-12-04T06:39:28.230Z,19.83
2022-12-04T06:41:31.601Z,19.15
2022-12-04T06:43:35.672Z,19.00
2022-12-04T06:45:37.541Z,19.17
2022-12-04T06:47:39.410Z,18.73
2022-12-04T06:49:41.310Z,20.02
2022-12-04T06:51:48.348Z,18.50
2022-12-04T06:53:57.557Z,20.13
2022-12-04T06:56:01.502Z,19.35
2022-12-04T06:58:03.411Z,20.75
2022-12-04T07:00:08.021Z,19.38
2022-12-04T07:02:10.782Z,19.73
2022-12-04T07:04:18.679Z,20.15
2022-12-04T07:06:26.926Z,20.85
2022-12-04T07:08:28.761Z,20.40
2022-12-04T07:10:37.064Z,21.75
2022-12-04T07:12:38.925Z,19.98
2022-12-04T07:14:40.953Z,20.17
2022-12-04T07:16:43.319Z,20.00
2022-12-04T07:18:45.645Z,20.65
2022-12-04T07:20:47.596Z,20.73
2022-12-04T07:23:01.412Z,20.20
2022-12-04T07:25:07.079Z,21.50
2022-12-04T07:27:09.026Z,18.65
2022-12-04T07:29:11.179Z,18.42
2022-12-04T07:31:22.038Z,19.00
2022-12-04T07:33:26.181Z,17.87
2022-12-04T07:35:38.066Z,20.23
2022-12-04T07:39:56.894Z,18.52
2022-12-04T07:41:59.060Z,21.00
2022-12-04T07:44:00.996Z,19.60
2022-12-04T07:46:12.210Z,20.48
2022-12-04T07:48:14.384Z,20.95
2022-12-04T07:50:17.409Z,20.77
2022-12-04T07:52:19.338Z,19.52
2022-12-04T07:54:25.177Z,19.40
2022-12-04T07:56:28.092Z,19.02
2022-12-04T07:58:38.190Z,19.10
2022-12-04T08:00:40.082Z,18.40
2022-12-04T08:02:41.994Z,18.90
2022-12-04T08:04:47.372Z,18.80
2022-12-04T08:06:53.048Z,18.10
2022-12-04T08:08:57.600Z,18.38
2022-12-04T08:11:00.226Z,18.08
2022-12-04T08:13:04.230Z,18.65
2022-12-04T08:15:19.299Z,18.40
2022-12-04T08:17:40.638Z,18.55
2022-12-04T08:19:42.534Z,18.98
2022-12-04T08:21:44.483Z,20.60
2022-12-04T08:23:55.139Z,19.08
2022-12-04T08:26:01.283Z,18.77
2022-12-04T08:28:08.697Z,18.27
2022-12-04T08:30:19.910Z,17.83
2022-12-04T08:32:22.912Z,17.20
2022-12-04T08:34:25.151Z,18.27
2022-12-04T08:36:43.007Z,16.90
2022-12-04T08:38:52.627Z,18.45
2022-12-04T08:41:00.257Z,17.25
2022-12-04T08:43:04.350Z,17.45
2022-12-04T08:45:08.938Z,16.92
2022-12-04T08:47:24.242Z,17.52
2022-12-04T08:49:26.139Z,17.17
2022-12-04T08:54:44.035Z,17.42
2022-12-04T08:56:47.288Z,16.65
2022-12-04T08:58:58.957Z,16.90
2022-12-04T09:01:08.943Z,16.08
2022-12-04T09:03:22.626Z,17.27
2022-12-04T09:05:29.873Z,16.52
2022-12-04T09:07:55.001Z,17.08
2022-12-04T09:09:57.487Z,17.63
2022-12-04T09:12:04.567Z,16.67
2022-12-04T09:14:13.724Z,16.35
2022-12-04T09:16:24.940Z,15.65
2022-12-04T09:18:37.420Z,15.85
2022-12-04T09:21:02.588Z,16.00
2022-12-04T09:23:06.805Z,16.73
2022-12-04T09:25:16.479Z,15.93
2022-12-04T09:27:48.353Z,16.27
2022-12-04T09:29:52.697Z,15.38
2022-12-04T09:31:59.027Z,16.90
2022-12-04T09:34:14.581Z,16.38
2022-12-04T09:36:26.212Z,15.82
2022-12-04T09:38:29.975Z,18.15
2022-12-04T09:40:48.900Z,17.15
2022-12-04T09:43:24.296Z,15.55
2022-12-04T09:45:51.623Z,16.27
2022-12-04T09:48:02.169Z,16.40
2022-12-04T09:50:22.213Z,15.77
2022-12-04T09:52:38.087Z,15.43
2022-12-04T09:54:50.237Z,17.02
2022-12-04T09:56:59.343Z,16.38
2022-12-04T09:59:43.181Z,17.05
2022-12-04T10:01:54.650Z,16.80
2022-12-04T10:04:06.618Z,15.68
2022-12-04T10:06:26.487Z,16.30
2022-12-04T10:08:36.262Z,16.48
2022-12-04T10:11:09.089Z,16.13
2022-12-04T10:13:29.718Z,16.00
2022-12-04T10:15:56.582Z,16.33
2022-12-04T10:18:31.938Z,16.23
2022-12-04T10:20:56.782Z,17.02
2022-12-04T10:23:14.438Z,16.38
2022-12-04T10:25:23.051Z,15.95
2022-12-04T10:28:11.247Z,17.30
2022-12-04T10:30:37.201Z,16.55
2022-12-04T10:32:45.989Z,16.75
2022-12-04T10:34:54.289Z,16.15
2022-12-04T10:37:06.730Z,14.82
2022-12-04T10:39:31.459Z,15.98
2022-12-04T10:42:16.257Z,15.75
2022-12-04T10:44:20.923Z,16.90
2022-12-04T10:46:27.395Z,16.92
2022-12-04T10:48:48.643Z,16.65
2022-12-04T10:51:00.485Z,16.50
2022-12-04T10:55:11.978Z,16.50
2022-12-04T10:57:17.322Z,16.38
2022-12-04T10:59:20.368Z,15.13
2022-12-04T11:01:34.199Z,14.98
2022-12-04T11:04:28.538Z,15.07
2022-12-04T11:06:36.703Z,15.05
2022-12-04T11:09:03.994Z,14.82
2022-12-04T11:11:11.583Z,14.70
2022-12-04T11:13:18.633Z,15.13
2022-12-04T11:15:51.435Z,14.32
2022-12-04T11:17:53.859Z,15.00
2022-12-04T11:20:08.959Z,15.65
2022-12-04T11:22:30.010Z,15.00
2022-12-04T11:25:06.364Z,14.90
2022-12-04T11:27:16.871Z,14.63
2022-12-04T11:29:29.819Z,14.27
2022-12-04T11:31:33.888Z,14.50
2022-12-04T11:33:43.915Z,14.05
2022-12-04T11:35:54.368Z,14.35
2022-12-04T11:38:15.820Z,14.55
2022-12-04T11:40:23.380Z,13.95
2022-12-04T11:42:31.462Z,13.85
2022-12-04T11:44:52.684Z,14.25
2022-12-04T11:47:04.342Z,16.23
2022-12-04T11:49:07.208Z,13.65
2022-12-04T11:51:55.031Z,13.82
2022-12-04T11:54:24.339Z,13.85
2022-12-04T11:56:38.840Z,13.60
2022-12-04T11:59:07.567Z,14.52
2022-12-04T12:01:41.901Z,15.43
2022-12-04T12:04:22.310Z,13.90
2022-12-04T12:06:35.226Z,13.77
2022-12-04T12:09:15.398Z,12.80
2022-12-04T12:11:58.827Z,14.02
2022-12-04T12:14:24.295Z,14.93
2022-12-04T12:17:07.723Z,13.90
2022-12-04T12:19:34.299Z,14.85
2022-12-04T12:22:09.305Z,14.02
2022-12-04T12:24:30.394Z,16.38
2022-12-04T12:26:50.884Z,15.88
2022-12-04T12:29:22.921Z,13.95
2022-12-04T12:31:57.461Z,13.48
2022-12-04T12:34:05.620Z,13.27
2022-12-04T12:36:22.196Z,13.82
2022-12-04T12:38:58.060Z,13.40
2022-12-04T12:41:06.749Z,14.77
2022-12-04T12:43:36.736Z,15.30
2022-12-04T12:46:16.338Z,14.45
2022-12-04T12:48:41.199Z,14.27
2022-12-04T12:51:08.926Z,13.40
2022-12-04T12:53:23.154Z,13.48
2022-12-04T12:55:46.106Z,13.32
2022-12-04T12:58:06.604Z,12.80
2022-12-04T13:00:20.176Z,14.20
2022-12-04T13:02:38.986Z,13.23
2022-12-04T13:04:46.495Z,13.35
2022-12-04T13:07:06.768Z,17.83
2022-12-04T13:09:27.961Z,16.95
2022-12-04T13:11:33.152Z,13.57
2022-12-04T13:13:53.268Z,12.85
2022-12-04T13:16:05.825Z,13.32
2022-12-04T13:18:19.539Z,14.63
2022-12-04T13:20:28.933Z,13.50
2022-12-04T13:23:03.398Z,15.00
2022-12-04T13:25:28.164Z,14.52
2022-12-04T13:27:45.509Z,16.05
2022-12-04T13:30:02.346Z,13.80
2022-12-04T13:32:29.870Z,14.20
2022-12-04T13:35:10.201Z,14.55
2022-12-04T13:37:52.371Z,15.27
2022-12-04T13:40:33.466Z,13.68
2022-12-04T13:42:37.683Z,14.27
2022-12-04T13:44:54.813Z,14.25
2022-12-04T13:47:08.970Z,13.98
2022-12-04T13:49:17.552Z,14.02
2022-12-04T13:51:37.413Z,14.00
2022-12-04T13:53:43.644Z,15.38
2022-12-04T13:55:55.761Z,16.00
2022-12-04T13:57:59.100Z,14.07
2022-12-04T14:00:24.944Z,13.90
2022-12-04T14:02:38.552Z,13.65
2022-12-04T14:05:24.686Z,13.27
2022-12-04T14:07:32.253Z,13.15
2022-12-04T14:09:50.975Z,13.75
2022-12-04T14:12:04.452Z,14.00
2022-12-04T14:14:15.990Z,13.35
2022-12-04T14:16:41.283Z,14.13
2022-12-04T14:19:05.629Z,13.82
2022-12-04T14:21:07.597Z,15.65
2022-12-04T14:23:22.836Z,20.17
2022-12-04T14:25:40.385Z,15.23
2022-12-04T14:27:43.708Z,16.77
2022-12-04T14:29:55.790Z,14.95
2022-12-04T14:32:06.759Z,16.38
2022-12-04T14:34:32.158Z,15.15
2022-12-04T14:36:42.662Z,14.90
2022-12-04T14:38:50.359Z,15.77
2022-12-04T14:40:59.162Z,15.25
2022-12-04T14:43:01.737Z,16.33
2022-12-04T14:45:07.046Z,16.55
2022-12-04T14:47:46.609Z,14.57
2022-12-04T14:50:10.957Z,14.63
2022-12-04T14:53:02.749Z,15.52
2022-12-04T14:55:16.850Z,15.65
2022-12-04T14:57:52.223Z,15.70
2022-12-04T15:00:00.835Z,17.38
2022-12-04T15:02:12.456Z,16.05
2022-12-04T15:04:28.269Z,14.82
2022-12-04T15:06:34.564Z,14.30
2022-12-04T15:08:52.592Z,14.43
2022-12-04T15:11:16.347Z,13.10
2022-12-04T15:13:32.016Z,14.32
2022-12-04T15:15:38.601Z,16.33
2022-12-04T15:17:41.726Z,15.45
2022-12-04T15:19:44.760Z,14.65
2022-12-04T15:21:48.298Z,15.02
2022-12-04T15:23:54.803Z,15.18
2022-12-04T15:26:01.212Z,16.27
2022-12-04T15:28:25.388Z,14.00
2022-12-04T15:30:30.478Z,13.98
2022-12-04T15:32:34.107Z,14.32
2022-12-04T15:34:46.839Z,13.70
2022-12-04T15:37:01.283Z,14.25
2022-12-04T15:39:27.322Z,13.55
2022-12-04T15:41:42.700Z,13.98
2022-12-04T15:43:51.082Z,14.18
2022-12-04T15:46:31.692Z,12.35
2022-12-04T15:48:34.159Z,13.18
2022-12-04T15:50:58.735Z,14.02
2022-12-04T15:53:06.939Z,14.95
2022-12-04T15:55:18.724Z,15.60
2022-12-04T15:57:34.095Z,14.27
2022-12-04T15:59:37.785Z,17.20
2022-12-04T16:01:42.217Z,15.07
2022-12-04T16:03:44.666Z,14.80
2022-12-04T16:05:48.448Z,13.02
2022-12-04T16:08:00.934Z,13.30
2022-12-04T16:10:24.609Z,13.25
2022-12-04T16:12:33.685Z,13.80
2022-12-04T16:14:43.250Z,13.98
2022-12-04T16:16:51.720Z,13.63
2022-12-04T16:18:53.971Z,13.75
2022-12-04T16:20:58.762Z,12.73
2022-12-04T16:23:02.785Z,13.55
2022-12-04T16:25:05.564Z,12.95
2022-12-04T16:27:13.852Z,13.88
2022-12-04T16:29:15.804Z,14.05
2022-12-04T16:31:20.168Z,13.20
2022-12-04T16:33:33.453Z,13.45
2022-12-04T16:35:36.787Z,13.23
2022-12-04T16:37:40.154Z,12.75
2022-12-04T16:39:45.542Z,12.65
2022-12-04T16:41:48.522Z,13.55
2022-12-04T16:44:03.798Z,13.20
2022-12-04T16:46:07.318Z,12.63
2022-12-04T16:48:35.973Z,12.77
2022-12-04T16:50:40.042Z,12.02
2022-12-04T16:52:45.772Z,11.85
2022-12-04T16:54:48.291Z,13.32
2022-12-04T16:56:50.766Z,12.60
2022-12-04T16:58:52.750Z,12.57
2022-12-04T17:00:57.296Z,12.20
2022-12-04T17:03:35.647Z,12.88
2022-12-04T17:05:37.640Z,13.15
2022-12-04T17:07:41.748Z,14.07
2022-12-04T17:09:44.183Z,13.63
2022-12-04T17:11:54.640Z,12.73
2022-12-04T17:13:56.947Z,12.55
2022-12-04T17:16:01.235Z,12.77
2022-12-04T17:18:09.078Z,13.57
2022-12-04T17:20:18.825Z,13.20
2022-12-04T17:22:23.835Z,13.65
2022-12-04T17:24:32.218Z,13.75
2022-12-04T17:26:34.596Z,12.68
2022-12-04T17:28:37.538Z,14.10
2022-12-04T17:30:45.539Z,13.02
2022-12-04T17:32:53.933Z,13.68
2022-12-04T17:34:56.724Z,13.00
2022-12-04T17:37:00.886Z,13.60
2022-12-04T17:39:04.617Z,14.38
2022-12-04T17:41:09.805Z,13.18
2022-12-04T17:43:22.080Z,13.48
2022-12-04T17:45:42.286Z,12.43
2022-12-04T17:47:53.855Z,12.73
2022-12-04T17:49:55.841Z,12.23
2022-12-04T17:51:58.753Z,13.30
2022-12-04T17:54:04.999Z,13.35
2022-12-04T17:56:12.514Z,14.02
2022-12-04T17:58:15.896Z,12.88
2022-12-04T18:00:18.365Z,13.55
2022-12-04T18:02:53.200Z,13.10
2022-12-04T18:05:19.927Z,13.15
2022-12-04T18:07:27.452Z,13.80
2022-12-04T18:09:32.945Z,13.38
2022-12-04T18:11:37.871Z,15.10
2022-12-04T18:13:42.404Z,13.68
2022-12-04T18:15:53.056Z,13.60
2022-12-04T18:18:11.805Z,13.48
2022-12-04T18:20:15.058Z,13.82
2022-12-04T18:22:39.033Z,13.43
2022-12-04T18:24:41.462Z,11.88
2022-12-04T18:26:49.871Z,11.70
2022-12-04T18:28:55.614Z,11.27
2022-12-04T18:31:14.532Z,11.15
2022-12-04T18:33:19.042Z,11.15
2022-12-04T18:35:21.283Z,12.18
2022-12-04T18:37:23.570Z,12.10
2022-12-04T18:39:35.051Z,12.20
2022-12-04T18:41:37.608Z,12.55
2022-12-04T18:44:03.054Z,12.05
2022-12-04T18:46:08.393Z,12.75
2022-12-04T18:48:12.204Z,12.65
2022-12-04T18:50:14.775Z,12.23
2022-12-04T18:52:20.262Z,12.93
2022-12-04T18:54:47.500Z,13.07
2022-12-04T18:56:51.361Z,12.57
2022-12-04T18:59:26.228Z,12.77
2022-12-04T19:01:32.631Z,11.43
2022-12-04T19:03:48.174Z,12.25
2022-12-04T19:05:51.331Z,12.15
2022-12-04T19:07:54.973Z,12.55
2022-12-04T19:10:12.762Z,12.30
2022-12-04T19:12:16.955Z,11.93
2022-12-04T19:14:23.744Z,11.90
2022-12-04T19:16:31.693Z,11.48
2022-12-04T19:18:43.593Z,10.73
2022-12-04T19:22:53.357Z,10.88
2022-12-04T19:24:59.309Z,10.90
2022-12-04T19:27:13.032Z,11.23
2022-12-04T19:29:16.830Z,13.30
2022-12-04T19:31:21.447Z,13.45
2022-12-04T19:33:31.107Z,11.40
2022-12-04T19:35:36.634Z,11.85
2022-12-04T19:37:46.889Z,10.98
2022-12-04T19:39:59.413Z,10.27
2022-12-04T19:42:09.880Z,10.95
2022-12-04T19:44:46.877Z,10.77
2022-12-04T19:46:43.794Z,11.07
2022-12-04T19:48:47.886Z,11.70
2022-12-04T19:51:12.575Z,11.93
2022-12-04T19:53:30.171Z,14.10
2022-12-04T19:55:37.539Z,11.82
2022-12-04T19:57:40.834Z,12.93
2022-12-04T19:59:46.292Z,11.75
2022-12-04T20:01:49.153Z,11.32
2022-12-04T20:03:56.812Z,12.27
2022-12-04T20:06:19.153Z,11.48
2022-12-04T20:08:22.135Z,11.52
2022-12-04T20:10:25.241Z,11.50
2022-12-04T20:12:33.847Z,11.85
2022-12-04T20:14:41.819Z,12.10
2022-12-04T20:16:51.196Z,10.32
2022-12-04T20:18:54.967Z,10.90
2022-12-04T20:21:12.117Z,10.63
2022-12-04T20:23:17.531Z,10.20
2022-12-04T20:25:19.990Z,11.60
2022-12-04T20:27:25.585Z,11.88
2022-12-04T20:29:28.306Z,11.68
2022-12-04T20:31:38.959Z,12.55
2022-12-04T20:33:41.860Z,11.55
2022-12-04T20:35:46.247Z,11.20
2022-12-04T20:37:50.718Z,10.70
2022-12-04T20:39:54.935Z,11.07
2022-12-04T20:41:58.311Z,9.43
2022-12-04T20:44:08.448Z,10.13
2022-12-04T20:46:22.011Z,10.07
2022-12-04T20:48:28.780Z,10.73
2022-12-04T20:50:46.505Z,11.18
2022-12-04T20:53:07.337Z,10.40
2022-12-04T20:55:20.177Z,10.43
2022-12-04T20:57:25.688Z,10.75
2022-12-04T20:59:37.069Z,9.48
2022-12-04T21:01:52.107Z,10.05
2022-12-04T21:03:58.339Z,9.20
2022-12-04T21:06:00.339Z,10.32
2022-12-04T21:08:05.620Z,9.55
2022-12-04T21:10:08.973Z,8.82
2022-12-04T21:12:31.414Z,10.23
2022-12-04T21:15:14.187Z,10.55
2022-12-04T21:17:19.239Z,9.55
2022-12-04T21:19:32.720Z,10.32
2022-12-04T21:21:37.284Z,10.32
2022-12-04T21:23:39.542Z,8.88
2022-12-04T21:25:41.602Z,9.38
2022-12-04T21:27:43.481Z,8.95
2022-12-04T21:29:45.469Z,8.68
2022-12-04T21:31:47.507Z,9.18
2022-12-04T21:33:49.421Z,8.80
2022-12-04T21:35:52.375Z,9.20
2022-12-04T21:37:54.290Z,9.85
2022-12-04T21:39:56.420Z,9.07
2022-12-04T21:42:16.889Z,9.25
2022-12-04T21:44:20.299Z,9.43
2022-12-04T21:46:22.217Z,8.20
2022-12-04T21:48:25.117Z,8.57
2022-12-04T21:50:32.892Z,8.20
2022-12-04T21:52:34.838Z,8.07
2022-12-04T21:54:37.785Z,8.77
2022-12-04T21:56:39.667Z,8.07
2022-12-04T21:58:47.602Z,8.35
2022-12-04T22:01:12.365Z,8.18
2022-12-04T22:03:19.144Z,8.50
2022-12-04T22:05:21.286Z,7.75
2022-12-04T22:07:23.289Z,8.10
2022-12-04T22:09:27.155Z,7.72
2022-12-04T22:11:32.212Z,8.45
2022-12-04T22:13:38.476Z,8.63
2022-12-04T22:15:47.338Z,7.82
2022-12-04T22:17:55.071Z,7.32
2022-12-04T22:19:59.113Z,7.65
2022-12-04T22:22:01.433Z,8.05
2022-12-04T22:24:10.693Z,7.05
2022-12-04T22:26:21.132Z,7.22
2022-12-04T22:28:23.108Z,7.90
2022-12-04T22:30:30.768Z,7.70
2022-12-04T22:32:36.827Z,8.20
2022-12-04T22:34:38.684Z,6.97
2022-12-04T22:36:52.005Z,7.57
2022-12-04T22:39:10.391Z,6.95
2022-12-04T22:41:17.245Z,8.43
2022-12-04T22:43:19.101Z,7.35
2022-12-04T22:45:23.058Z,7.70
2022-12-04T22:47:25.042Z,7.82
2022-12-04T22:49:26.867Z,7.47
2022-12-04T22:51:29.337Z,7.53
2022-12-04T22:53:37.874Z,8.25
2022-12-04T22:55:41.902Z,7.38
2022-12-04T22:57:43.806Z,8.00
2022-12-04T22:59:46.210Z,8.00
2022-12-04T23:01:48.184Z,8.07
2022-12-04T23:03:51.002Z,8.60
2022-12-04T23:05:52.846Z,8.25
2022-12-04T23:07:55.864Z,8.32
2022-12-04T23:09:58.066Z,7.72
2022-12-04T23:12:00.144Z,8.30
2022-12-04T23:14:04.791Z,7.57
2022-12-04T23:16:10.952Z,8.70
2022-12-04T23:18:14.260Z,8.38
2022-12-04T23:20:16.087Z,7.82
2022-12-04T23:22:17.989Z,7.57
2022-12-04T23:24:20.921Z,7.43
2022-12-04T23:26:30.067Z,7.32
2022-12-04T23:28:32.077Z,7.53
2022-12-04T23:30:36.500Z,7.82
2022-12-04T23:32:38.604Z,8.93
2022-12-04T23:34:40.516Z,8.30
2022-12-04T23:36:43.358Z,7.85
2022-12-04T23:38:45.327Z,8.07
2022-12-04T23:40:47.784Z,8.80
2022-12-04T23:42:49.667Z,8.52
2022-12-04T23:44:52.483Z,8.00
2022-12-04T23:46:54.445Z,7.82
2022-12-04T23:48:56.408Z,8.40
2022-12-04T23:50:58.299Z,7.50
2022-12-04T23:53:00.177Z,8.38
2022-12-04T23:55:01.995Z,8.45
2022-12-04T23:57:03.961Z,8.23
2022-12-04T23:59:07.798Z,8.10
